createdAt,value
2023-03-22T00:00:53.190Z,2.22
2023-03-22T00:03:22.017Z,2.70
2023-03-22T00:05:50.815Z,2.55
2023-03-22T00:08:21.383Z,2.78
2023-03-22T00:10:49.852Z,3.25
2023-03-22T00:13:18.072Z,2.88
2023-03-22T00:15:49.063Z,2.05
2023-03-22T00:18:18.305Z,2.50
2023-03-22T00:20:51.304Z,2.47
2023-03-22T00:23:22.176Z,2.40
2023-03-22T00:25:52.985Z,2.75
2023-03-22T00:28:21.988Z,2.55
2023-03-22T00:30:55.440Z,2.30
2023-03-22T00:33:25.110Z,2.40
2023-03-22T00:35:56.753Z,2.83
2023-03-22T00:38:44.966Z,2.60
2023-03-22T00:41:16.159Z,2.75
2023-03-22T00:43:46.096Z,2.70
2023-03-22T00:46:16.388Z,2.35
2023-03-22T00:48:48.708Z,2.50
2023-03-22T00:51:18.247Z,2.20
2023-03-22T00:53:53.994Z,2.78
2023-03-22T00:56:23.057Z,2.50
2023-03-22T00:58:51.413Z,2.70
2023-03-22T01:01:21.811Z,2.50
2023-03-22T01:03:51.676Z,2.72
2023-03-22T01:06:20.152Z,2.63
2023-03-22T01:08:50.989Z,2.25
2023-03-22T01:11:19.716Z,2.50
2023-03-22T01:13:49.145Z,3.00
2023-03-22T01:16:19.229Z,3.15
2023-03-22T01:18:47.795Z,2.75
2023-03-22T01:21:16.301Z,2.65
2023-03-22T01:23:44.962Z,2.55
2023-03-22T01:26:15.430Z,2.80
2023-03-22T01:28:44.207Z,2.63
2023-03-22T01:31:12.902Z,3.13
2023-03-22T01:33:41.235Z,2.30
2023-03-22T01:36:10.796Z,4.07
2023-03-22T01:38:39.092Z,3.20
2023-03-22T01:41:08.695Z,2.53
2023-03-22T01:43:38.993Z,2.70
2023-03-22T01:46:08.416Z,2.97
2023-03-22T01:48:42.162Z,3.25
2023-03-22T01:51:15.054Z,3.38
2023-03-22T01:53:48.988Z,2.95
2023-03-22T01:56:20.595Z,3.28
2023-03-22T01:58:51.374Z,2.63
2023-03-22T02:01:22.172Z,2.80
2023-03-22T02:03:56.550Z,2.40
2023-03-22T02:06:26.055Z,3.30
2023-03-22T02:08:57.930Z,3.05
2023-03-22T02:11:32.383Z,3.15
2023-03-22T02:14:20.003Z,2.70
2023-03-22T02:17:04.076Z,2.50
2023-03-22T02:20:21.049Z,3.08
2023-03-22T02:23:39.025Z,2.03
2023-03-22T02:26:49.634Z,2.20
2023-03-22T02:29:30.137Z,2.67
2023-03-22T02:32:42.476Z,2.20
2023-03-22T02:35:48.104Z,2.75
2023-03-22T02:39:10.060Z,2.25
2023-03-22T02:41:53.185Z,3.13
2023-03-22T02:44:29.197Z,2.63
2023-03-22T02:47:04.194Z,3.00
2023-03-22T02:49:39.249Z,3.35
2023-03-22T02:52:18.465Z,3.00
2023-03-22T02:54:54.152Z,3.63
2023-03-22T02:57:30.762Z,4.95
2023-03-22T03:00:02.213Z,5.07
2023-03-22T03:02:32.015Z,4.60
2023-03-22T03:05:00.870Z,5.20
2023-03-22T03:07:31.376Z,5.03
2023-03-22T03:10:01.968Z,5.68
2023-03-22T03:12:30.557Z,5.95
2023-03-22T03:15:00.224Z,6.82
2023-03-22T03:17:46.321Z,6.93
2023-03-22T03:20:30.491Z,6.45
2023-03-22T03:23:15.394Z,6.97
2023-03-22T03:25:58.501Z,7.43
2023-03-22T03:28:38.571Z,8.00
2023-03-22T03:31:19.488Z,8.73
2023-03-22T03:33:57.490Z,8.30
2023-03-22T03:36:27.373Z,9.30
2023-03-22T03:38:57.826Z,8.90
2023-03-22T03:41:31.230Z,9.80
2023-03-22T03:44:00.629Z,8.68
2023-03-22T03:46:29.676Z,9.57
2023-03-22T03:48:59.707Z,9.82
2023-03-22T03:51:29.512Z,10.45
2023-03-22T03:53:57.995Z,10.20
2023-03-22T03:56:28.497Z,9.23
2023-03-22T03:58:56.861Z,10.50
2023-03-22T04:01:26.590Z,9.75
2023-03-22T04:03:56.234Z,10.52
2023-03-22T04:06:24.685Z,10.70
2023-03-22T04:08:53.887Z,11.63
2023-03-22T04:11:22.982Z,10.77
2023-03-22T04:13:52.857Z,11.75
2023-03-22T04:16:21.227Z,10.23
2023-03-22T04:18:49.610Z,10.57
2023-03-22T04:21:18.609Z,10.57
2023-03-22T04:23:47.322Z,11.15
2023-03-22T04:26:15.962Z,11.40
2023-03-22T04:28:44.104Z,11.75
2023-03-22T04:31:14.090Z,10.82
2023-03-22T04:33:46.941Z,11.68
2023-03-22T04:36:17.521Z,11.88
2023-03-22T04:38:46.083Z,12.50
2023-03-22T04:41:14.806Z,11.25
2023-03-22T04:43:47.132Z,11.98
2023-03-22T04:46:17.037Z,11.55
2023-03-22T04:48:47.366Z,12.38
2023-03-22T04:51:15.870Z,13.70
2023-03-22T04:53:44.246Z,12.63
2023-03-22T04:56:16.007Z,12.00
2023-03-22T04:58:46.335Z,12.18
2023-03-22T05:01:19.097Z,12.43
2023-03-22T05:03:47.823Z,12.75
2023-03-22T05:06:17.188Z,12.48
2023-03-22T05:08:45.498Z,11.05
2023-03-22T05:11:17.667Z,11.65
2023-03-22T05:13:46.230Z,11.35
2023-03-22T05:16:16.491Z,11.07
2023-03-22T05:18:45.996Z,11.90
2023-03-22T05:21:16.597Z,10.88
2023-03-22T05:23:47.580Z,10.52
2023-03-22T05:26:20.821Z,11.20
2023-03-22T05:28:50.148Z,11.65
2023-03-22T05:31:25.196Z,10.32
2023-03-22T05:33:56.409Z,10.50
2023-03-22T05:36:25.730Z,10.98
2023-03-22T05:38:54.098Z,9.73
2023-03-22T05:41:22.386Z,9.63
2023-03-22T05:43:51.152Z,9.77
2023-03-22T05:46:20.993Z,9.52
2023-03-22T05:48:49.401Z,9.45
2023-03-22T05:51:19.756Z,9.07
2023-03-22T05:53:50.049Z,8.77
2023-03-22T05:56:22.000Z,9.05
2023-03-22T05:58:52.208Z,9.40
2023-03-22T06:01:23.955Z,8.20
2023-03-22T06:03:52.749Z,8.60
2023-03-22T06:06:30.191Z,8.14
2023-03-22T06:09:14.172Z,7.78
2023-03-22T06:11:45.105Z,7.82
2023-03-22T06:14:13.728Z,7.60
2023-03-22T06:16:44.585Z,7.93
2023-03-22T06:19:13.028Z,7.63
2023-03-22T06:21:41.599Z,7.30
2023-03-22T06:24:10.507Z,7.80
2023-03-22T06:26:39.478Z,7.45
2023-03-22T06:29:08.893Z,7.15
2023-03-22T06:31:52.852Z,7.15
2023-03-22T06:42:38.715Z,6.56
2023-03-22T06:45:25.944Z,5.90
2023-03-22T06:47:55.984Z,5.40
2023-03-22T06:50:35.209Z,5.05
2023-03-22T06:55:59.698Z,5.28
2023-03-22T07:06:47.994Z,5.03
2023-03-22T07:20:52.124Z,4.25
2023-03-22T07:23:42.259Z,3.88
2023-03-22T07:32:23.217Z,3.20
2023-03-22T07:56:47.283Z,3.00
2023-03-22T08:02:16.714Z,3.30
2023-03-22T08:05:00.083Z,2.83
2023-03-22T08:13:44.008Z,4.10
2023-03-22T08:20:52.689Z,2.80
2023-03-22T08:24:22.607Z,3.33
2023-03-22T08:40:32.706Z,3.92
2023-03-22T08:43:05.300Z,3.15
2023-03-22T08:45:36.820Z,2.65
2023-03-22T08:48:10.926Z,2.85
2023-03-22T08:50:54.958Z,2.92
2023-03-22T09:01:31.907Z,3.33
2023-03-22T09:04:10.874Z,3.08
2023-03-22T09:07:02.065Z,3.10
2023-03-22T09:09:39.052Z,3.60
2023-03-22T09:12:09.205Z,3.40
2023-03-22T09:31:00.030Z,4.00
2023-03-22T09:48:40.748Z,3.42
2023-03-22T09:51:29.802Z,3.25
2023-03-22T09:53:59.840Z,3.45
2023-03-22T09:56:35.352Z,3.70
2023-03-22T09:59:23.002Z,4.13
2023-03-22T10:02:01.114Z,3.60
2023-03-22T10:04:58.260Z,4.13
2023-03-22T10:07:36.776Z,3.47
2023-03-22T10:10:18.451Z,3.15
2023-03-22T10:12:56.268Z,4.15
2023-03-22T10:15:38.973Z,3.95
2023-03-22T10:18:17.503Z,3.65
2023-03-22T10:20:50.567Z,4.65
2023-03-22T10:23:27.582Z,4.00
2023-03-22T10:26:06.298Z,4.18
2023-03-22T10:28:43.356Z,4.22
2023-03-22T10:31:18.050Z,4.25
2023-03-22T10:34:00.077Z,4.63
2023-03-22T10:36:35.047Z,4.35
2023-03-22T10:39:17.220Z,3.78
2023-03-22T10:41:50.117Z,4.18
2023-03-22T10:44:32.894Z,4.20
2023-03-22T10:47:11.494Z,4.45
2023-03-22T10:49:48.346Z,4.43
2023-03-22T10:52:37.460Z,4.75
2023-03-22T10:55:14.735Z,4.45
2023-03-22T10:57:52.132Z,3.75
2023-03-22T11:00:26.495Z,3.72
2023-03-22T11:03:01.025Z,4.53
2023-03-22T11:05:35.396Z,3.38
2023-03-22T11:08:08.067Z,3.95
2023-03-22T11:10:40.193Z,3.30
2023-03-22T11:13:24.594Z,3.85
2023-03-22T11:18:48.458Z,3.53
2023-03-22T11:21:22.371Z,4.22
2023-03-22T11:24:00.698Z,3.63
2023-03-22T11:26:39.060Z,3.35
2023-03-22T11:29:20.693Z,3.53
2023-03-22T11:32:02.544Z,3.38
2023-03-22T11:34:33.201Z,3.63
2023-03-22T11:37:11.323Z,3.63
2023-03-22T11:39:50.286Z,2.92
2023-03-22T11:42:22.513Z,3.42
2023-03-22T11:44:52.361Z,3.03
2023-03-22T11:47:21.791Z,3.63
2023-03-22T11:49:54.606Z,3.13
2023-03-22T11:52:28.380Z,3.33
2023-03-22T11:55:03.465Z,3.40
2023-03-22T11:57:43.915Z,3.03
2023-03-22T12:00:21.920Z,3.75
2023-03-22T12:02:57.290Z,4.32
2023-03-22T12:05:31.372Z,3.40
2023-03-22T12:08:16.246Z,3.28
2023-03-22T12:10:52.495Z,3.08
2023-03-22T12:13:30.656Z,3.00
2023-03-22T12:16:04.373Z,3.10
2023-03-22T12:18:43.852Z,3.88
2023-03-22T12:21:13.299Z,3.05
2023-03-22T12:23:43.688Z,3.20
2023-03-22T12:26:21.078Z,3.00
2023-03-22T12:28:57.144Z,4.10
2023-03-22T12:31:29.475Z,3.58
2023-03-22T12:34:04.416Z,3.30
2023-03-22T12:36:41.737Z,4.10
2023-03-22T12:39:25.611Z,3.08
2023-03-22T12:42:01.224Z,3.22
2023-03-22T12:44:38.121Z,4.53
2023-03-22T12:47:19.428Z,3.35
2023-03-22T12:50:03.091Z,3.35
2023-03-22T12:52:45.211Z,3.78
2023-03-22T12:55:30.106Z,3.85
2023-03-22T12:58:02.051Z,4.00
2023-03-22T13:00:38.501Z,4.05
2023-03-22T13:03:27.192Z,3.63
2023-03-22T13:06:07.552Z,3.70
2023-03-22T13:09:17.090Z,4.65
2023-03-22T13:11:53.598Z,3.78
2023-03-22T13:14:59.278Z,3.92
2023-03-22T13:17:46.913Z,4.40
2023-03-22T13:20:31.470Z,3.30
2023-03-22T13:23:27.695Z,3.50
2023-03-22T13:28:38.596Z,3.72
2023-03-22T13:31:33.529Z,4.10
2023-03-22T13:34:04.604Z,3.72
2023-03-22T13:36:33.863Z,3.65
2023-03-22T13:39:12.877Z,3.30
2023-03-22T13:41:55.395Z,3.13
2023-03-22T13:44:32.718Z,3.45
2023-03-22T13:47:04.911Z,3.47
2023-03-22T13:49:54.887Z,3.47
2023-03-22T13:52:36.685Z,3.63
2023-03-22T13:55:33.140Z,3.65
2023-03-22T13:58:02.131Z,3.55
2023-03-22T14:00:58.349Z,3.78
2023-03-22T14:03:33.945Z,3.88
2023-03-22T14:06:16.434Z,4.20
2023-03-22T14:15:06.816Z,4.78
2023-03-22T14:17:45.151Z,4.47
2023-03-22T14:20:19.579Z,4.30
